Time;durP1;ratioP1;P1;durP2;ratioP2;P2;SDS_P1;SDS_P2;PMS_P1;PMS_P2;Temp;Humidity;BMP_temperature;BMP_pressure;BME280_temperature;BME280_humidity;BME280_pressure;Samples;Min_cycle;Max_cycle;Signal;HPM_P1;HPM_P2
2021/03/03 00:01:18;;;;;;;11.45;4.53;;;;;;;3.64;65.33;101374.19;1803317;79;21099;-68
2021/03/03 00:03:46;;;;;;;8.05;3.95;;;;;;;3.69;65.26;101367.53;1708975;82;21478;-68
2021/03/03 00:06:14;;;;;;;10.55;4.90;;;;;;;3.68;65.25;101365.81;1725354;81;21156;-69
2021/03/03 00:08:42;;;;;;;7.08;3.90;;;;;;;3.67;65.22;101363.67;1792606;79;21156;-71
2021/03/03 00:11:09;;;;;;;8.60;3.95;;;;;;;3.66;65.22;101367.62;1802614;79;21171;-68
2021/03/03 00:13:37;;;;;;;8.43;3.98;;;;;;;3.60;65.30;101369.14;1795659;79;21179;-66
2021/03/03 00:16:06;;;;;;;9.23;4.00;;;;;;;3.53;65.53;101369.80;1800597;79;22600;-66
2021/03/03 00:18:34;;;;;;;7.87;3.92;;;;;;;3.50;65.52;101371.23;1713505;82;21182;-68
2021/03/03 00:21:02;;;;;;;9.43;4.37;;;;;;;3.59;65.47;101376.10;1749494;81;21525;-69
2021/03/03 00:23:29;;;;;;;9.23;3.70;;;;;;;3.62;65.39;101377.77;1708527;82;21139;-67
2021/03/03 00:25:56;;;;;;;10.80;3.72;;;;;;;3.62;65.40;101379.06;1737558;82;21162;-68
2021/03/03 00:28:24;;;;;;;8.30;3.85;;;;;;;3.62;65.42;101376.47;1744668;80;21151;-68
2021/03/03 00:30:51;;;;;;;10.28;4.28;;;;;;;3.57;65.42;101383.59;1765781;79;21618;-67
2021/03/03 00:33:19;;;;;;;8.95;3.70;;;;;;;3.54;65.51;101388.42;1785075;79;21191;-68
2021/03/03 00:35:48;;;;;;;13.10;4.67;;;;;;;3.46;65.65;101395.22;1785459;79;21164;-67
2021/03/03 00:38:16;;;;;;;9.70;4.85;;;;;;;3.39;65.83;101394.16;1792197;79;21624;-59
2021/03/03 00:40:44;;;;;;;10.03;4.17;;;;;;;3.44;65.78;101395.70;1797061;79;21262;-59
2021/03/03 00:43:12;;;;;;;9.83;4.25;;;;;;;3.51;65.66;101391.13;1799512;79;21116;-58
2021/03/03 00:45:40;;;;;;;9.10;4.20;;;;;;;3.53;65.58;101389.31;1799675;79;21612;-58
2021/03/03 00:48:09;;;;;;;9.03;3.92;;;;;;;3.51;65.56;101388.09;1769641;79;21220;-58
2021/03/03 00:50:38;;;;;;;7.72;4.22;;;;;;;3.49;65.59;101391.18;1802595;79;21236;-58
2021/03/03 00:53:14;;;;;;;6.10;3.58;;;;;;;3.44;65.62;101391.79;1805311;79;23532;-58
2021/03/03 00:55:53;;;;;;;9.13;4.45;;;;;;;3.38;65.78;101394.62;1805028;79;21603;-58
2021/03/03 00:58:23;;;;;;;10.00;4.45;;;;;;;3.33;65.91;101397.38;1799184;79;21718;-58
2021/03/03 01:00:52;;;;;;;8.00;3.77;;;;;;;3.31;66.03;101395.28;1802394;79;21597;-58
2021/03/03 01:03:20;;;;;;;10.15;4.25;;;;;;;3.37;65.91;101398.11;1790630;79;21124;-58
2021/03/03 01:05:50;;;;;;;9.08;4.08;;;;;;;3.43;65.84;101397.05;1800015;79;21195;-59
2021/03/03 01:08:18;;;;;;;6.62;3.15;;;;;;;3.40;65.83;101399.78;1799441;79;21144;-59
2021/03/03 01:10:45;;;;;;;8.73;4.08;;;;;;;3.35;65.91;101405.12;1800593;79;21674;-59
2021/03/03 01:13:14;;;;;;;9.75;4.90;;;;;;;3.28;66.02;101406.24;1803514;79;21092;-59
2021/03/03 01:15:42;;;;;;;8.80;3.37;;;;;;;3.22;66.14;101407.73;1804133;79;21148;-58
2021/03/03 01:18:11;;;;;;;9.33;3.90;;;;;;;3.18;66.34;101410.02;1775506;79;21187;-58
2021/03/03 01:20:41;;;;;;;10.53;4.05;;;;;;;3.18;66.36;101413.48;1791153;79;21192;-58
2021/03/03 01:23:09;;;;;;;9.40;4.20;;;;;;;3.27;66.18;101426.64;1772033;79;21109;-58
2021/03/03 01:25:37;;;;;;;9.13;3.95;;;;;;;3.31;66.09;101418.69;1802590;79;21172;-57
2021/03/03 01:28:05;;;;;;;11.73;4.20;;;;;;;3.28;66.10;101417.48;1773486;79;21442;-58
2021/03/03 01:30:34;;;;;;;9.28;3.42;;;;;;;3.24;66.18;101418.94;1801256;79;21296;-58
2021/03/03 01:33:02;;;;;;;8.83;3.85;;;;;;;3.23;66.19;101418.52;1801096;79;21172;-58
2021/03/03 01:35:32;;;;;;;8.28;4.00;;;;;;;3.21;66.16;101416.42;1799682;79;21148;-58
2021/03/03 01:38:01;;;;;;;12.65;4.28;;;;;;;3.14;66.26;101424.88;1800699;79;21112;-58
2021/03/03 01:40:29;;;;;;;7.90;3.60;;;;;;;3.09;66.42;101428.08;1768713;79;21608;-58
2021/03/03 01:42:56;;;;;;;9.15;3.87;;;;;;;3.08;66.47;101427.23;1796534;79;21146;-58
2021/03/03 01:45:24;;;;;;;7.62;3.45;;;;;;;3.14;66.34;101425.75;1772923;79;21213;-59
2021/03/03 01:47:53;;;;;;;14.47;3.90;;;;;;;3.16;66.35;101429.57;1711856;82;21167;-58
2021/03/03 01:50:21;;;;;;;7.12;3.80;;;;;;;3.15;66.37;101432.63;1727395;81;21208;-58
2021/03/03 01:52:49;;;;;;;6.80;3.17;;;;;;;3.11;66.35;101436.24;1752067;80;21176;-58
2021/03/03 01:55:17;;;;;;;6.95;3.47;;;;;;;3.04;66.50;101429.52;1759751;80;21217;-59
2021/03/03 01:57:45;;;;;;;7.45;3.80;;;;;;;2.99;66.60;101436.61;1737750;80;21148;-58
2021/03/03 02:00:14;;;;;;;8.43;3.27;;;;;;;2.93;66.73;101440.73;1747633;80;21230;-59
2021/03/03 02:02:42;;;;;;;7.40;3.98;;;;;;;2.96;66.66;101441.94;1766990;80;21155;-59
2021/03/03 02:05:13;;;;;;;7.70;4.05;;;;;;;3.03;66.49;101436.94;1770624;80;21581;-57
2021/03/03 02:08:07;;;;;;;9.40;3.87;;;;;;;3.07;66.43;101441.13;1763755;80;21527;-57
2021/03/03 02:11:06;;;;;;;7.20;3.65;;;;;;;3.07;66.41;101435.92;1751057;81;21677;-59
2021/03/03 02:13:38;;;;;;;8.85;3.75;;;;;;;3.03;66.44;101438.23;1752375;81;21170;-58
2021/03/03 02:16:08;;;;;;;7.50;3.58;;;;;;;2.93;66.56;101434.23;1771974;80;21170;-58
2021/03/03 02:18:36;;;;;;;16.93;3.95;;;;;;;2.86;66.77;101440.49;1738184;80;21519;-58
2021/03/03 02:21:20;;;;;;;6.75;3.08;;;;;;;2.87;66.76;101440.91;1732345;81;21134;-59
2021/03/03 02:24:01;;;;;;;8.98;3.75;;;;;;;2.95;66.57;101446.27;1757391;81;21202;-58
2021/03/03 02:26:35;;;;;;;8.43;3.85;;;;;;;3.02;66.46;101454.72;1758034;81;21158;-58
2021/03/03 02:29:16;;;;;;;8.50;3.92;;;;;;;3.04;66.45;101456.82;1776853;80;21127;-59
2021/03/03 02:31:45;;;;;;;9.48;3.02;;;;;;;3.06;66.40;101454.17;1730377;81;21151;-59
2021/03/03 02:34:14;;;;;;;9.53;4.28;;;;;;;3.02;66.43;101457.33;1792282;79;21204;-58
2021/03/03 02:36:43;;;;;;;8.18;4.10;;;;;;;2.99;66.40;101465.22;1791521;79;21104;-58
2021/03/03 02:39:10;;;;;;;7.33;3.90;;;;;;;2.94;66.44;101465.38;1792185;79;21125;-59
2021/03/03 02:41:38;;;;;;;8.18;3.92;;;;;;;2.88;66.55;101472.06;1790872;79;21168;-58
2021/03/03 02:44:07;;;;;;;7.25;3.92;;;;;;;2.82;66.65;101478.73;1794208;79;21227;-59
2021/03/03 02:46:35;;;;;;;7.33;3.62;;;;;;;2.83;66.72;101483.05;1789815;79;22286;-57
2021/03/03 02:49:04;;;;;;;9.38;3.70;;;;;;;2.90;66.61;101475.91;1790778;79;21175;-58
2021/03/03 02:51:33;;;;;;;10.18;4.33;;;;;;;2.87;66.60;101482.05;1797226;78;21108;-57
2021/03/03 02:54:00;;;;;;;8.90;3.80;;;;;;;2.83;66.71;101487.41;1800315;79;21172;-57
2021/03/03 02:56:28;;;;;;;8.03;4.17;;;;;;;2.76;66.87;101484.98;1777351;79;21148;-67
2021/03/03 02:58:58;;;;;;;11.43;4.03;;;;;;;2.71;67.00;101487.33;1761583;80;21367;-66
2021/03/03 03:01:26;;;;;;;8.25;4.35;;;;;;;2.65;67.06;101490.09;1771638;79;21506;-65
2021/03/03 03:04:13;;;;;;;7.67;3.30;;;;;;;2.66;67.15;101495.70;1775084;79;21161;-65
2021/03/03 03:07:01;;;;;;;9.98;3.67;;;;;;;2.69;67.10;101497.77;1800619;79;21136;-66
2021/03/03 03:09:49;;;;;;;7.20;3.47;;;;;;;2.66;67.15;101502.20;1794024;79;21175;-65
2021/03/03 03:12:34;;;;;;;9.20;3.67;;;;;;;2.60;67.26;101499.31;1801611;79;21152;-66
2021/03/03 03:15:24;;;;;;;7.37;3.50;;;;;;;2.52;67.45;101498.67;1803641;79;21215;-67
2021/03/03 03:17:56;;;;;;;13.50;3.98;;;;;;;2.46;67.55;101500.17;1800042;79;21552;-66
2021/03/03 03:20:23;;;;;;;8.73;3.30;;;;;;;2.53;67.47;101508.19;1795850;79;21627;-67
2021/03/03 03:22:51;;;;;;;8.65;3.90;;;;;;;2.59;67.36;101511.92;1748314;79;21115;-66
2021/03/03 03:25:19;;;;;;;8.20;3.75;;;;;;;2.55;67.39;101510.28;1769127;79;21180;-67
2021/03/03 03:27:47;;;;;;;7.25;3.47;;;;;;;2.53;67.43;101514.68;1775563;79;21180;-67
2021/03/03 03:30:16;;;;;;;10.13;3.65;;;;;;;2.50;67.45;101508.27;1793233;79;21665;-65
2021/03/03 03:32:43;;;;;;;8.18;3.50;;;;;;;2.43;67.55;101513.24;1761109;79;21175;-67
2021/03/03 03:35:12;;;;;;;8.55;3.90;;;;;;;2.41;67.61;101503.73;1771046;79;21163;-66
2021/03/03 03:37:39;;;;;;;13.80;4.45;;;;;;;2.49;67.46;101505.25;1797727;78;21188;-66
2021/03/03 03:40:09;;;;;;;11.03;5.03;;;;;;;2.50;67.45;101513.47;1791104;79;21167;-67
2021/03/03 03:42:36;;;;;;;10.35;3.90;;;;;;;2.46;67.49;101516.60;1805871;78;21198;-67
2021/03/03 03:45:05;;;;;;;8.90;4.03;;;;;;;2.42;67.48;101513.66;1797952;79;21076;-66
2021/03/03 03:47:33;;;;;;;8.15;3.50;;;;;;;2.35;67.59;101508.25;1776434;79;21124;-67
2021/03/03 03:50:04;;;;;;;7.42;3.60;;;;;;;2.35;67.60;101503.05;1723334;79;21127;-67
2021/03/03 03:52:32;;;;;;;8.13;3.95;;;;;;;2.43;67.43;101505.45;1803958;79;21155;-67
2021/03/03 03:54:59;;;;;;;11.57;4.03;;;;;;;2.46;67.36;101507.51;1808024;79;21167;-67
2021/03/03 03:57:27;;;;;;;8.80;3.83;;;;;;;2.45;67.35;101508.84;1775002;80;21140;-67
2021/03/03 03:59:54;;;;;;;8.90;4.22;;;;;;;2.43;67.33;101513.24;1798122;79;21363;-67
2021/03/03 04:02:24;;;;;;;9.48;3.65;;;;;;;2.37;67.34;101511.22;1783293;79;21555;-67
2021/03/03 04:04:51;;;;;;;7.33;3.60;;;;;;;2.33;67.38;101513.48;1743524;80;21166;-68
2021/03/03 04:07:19;;;;;;;9.95;4.00;;;;;;;2.36;67.35;101511.27;1737705;80;21635;-66
2021/03/03 04:09:46;;;;;;;9.08;3.87;;;;;;;2.41;67.21;101512.83;1801571;79;21100;-63
2021/03/03 04:12:13;;;;;;;12.60;4.90;;;;;;;2.40;67.24;101516.34;1763262;79;21181;-65
2021/03/03 04:14:41;;;;;;;7.95;4.35;;;;;;;2.39;67.21;101524.17;1775433;79;21378;-65
2021/03/03 04:17:08;;;;;;;7.33;3.42;;;;;;;2.37;67.20;101528.53;1801904;77;21797;-65
2021/03/03 04:19:38;;;;;;;7.05;2.95;;;;;;;2.33;67.19;101525.17;1795533;79;21179;-65
2021/03/03 04:22:06;;;;;;;8.80;4.28;;;;;;;2.33;67.06;101529.52;1802118;79;21148;-65
2021/03/03 04:24:33;;;;;;;11.45;4.28;;;;;;;2.38;66.88;101531.09;1740458;79;21140;-66
2021/03/03 04:27:00;;;;;;;7.95;4.05;;;;;;;2.39;66.70;101528.06;1793158;79;21194;-64
2021/03/03 04:29:28;;;;;;;8.15;3.55;;;;;;;2.34;66.80;101529.48;1798592;79;21991;-67
2021/03/03 04:31:55;;;;;;;8.68;3.52;;;;;;;2.35;67.00;101534.22;1798835;79;21192;-64
2021/03/03 04:34:23;;;;;;;9.23;3.33;;;;;;;2.35;66.89;101534.22;1799121;79;21097;-65
2021/03/03 04:36:50;;;;;;;8.05;3.65;;;;;;;2.28;66.84;101537.89;1797046;79;21185;-65
2021/03/03 04:39:17;;;;;;;8.20;4.25;;;;;;;2.20;67.00;101545.87;1773741;79;21964;-62
2021/03/03 04:41:45;;;;;;;9.50;4.03;;;;;;;2.13;67.08;101548.23;1803042;77;21175;-66
2021/03/03 04:44:12;;;;;;;9.40;4.90;;;;;;;2.06;67.21;101549.30;1809420;79;21600;-67
2021/03/03 04:46:41;;;;;;;8.00;3.98;;;;;;;2.01;67.30;101546.34;1774179;79;21180;-65
2021/03/03 04:49:09;;;;;;;10.43;3.30;;;;;;;1.96;67.42;101546.91;1800305;79;21124;-66
2021/03/03 04:51:36;;;;;;;7.17;2.87;;;;;;;1.92;67.48;101549.20;1805013;79;21657;-66
2021/03/03 04:54:04;;;;;;;7.45;3.35;;;;;;;1.89;67.57;101563.55;1772534;79;21160;-64
2021/03/03 04:56:32;;;;;;;8.20;3.35;;;;;;;1.88;67.59;101561.83;1796851;79;21104;-60
2021/03/03 04:59:00;;;;;;;7.90;3.08;;;;;;;1.83;67.71;101571.05;1793749;77;21136;-59
2021/03/03 05:01:28;;;;;;;8.08;3.75;;;;;;;1.80;67.78;101572.84;1789670;79;21176;-59
2021/03/03 05:03:56;;;;;;;6.70;3.30;;;;;;;1.73;67.98;101571.30;1780549;79;21364;-60
2021/03/03 05:06:23;;;;;;;8.25;3.65;;;;;;;1.71;68.08;101575.22;1804057;79;21552;-60
2021/03/03 05:08:50;;;;;;;8.15;3.55;;;;;;;1.66;68.18;101581.84;1796066;79;21153;-60
2021/03/03 05:11:18;;;;;;;7.08;3.52;;;;;;;1.62;68.35;101595.75;1787918;79;21643;-59
2021/03/03 05:13:46;;;;;;;8.23;3.42;;;;;;;1.53;68.57;101590.80;1797280;79;21101;-59
2021/03/03 05:16:13;;;;;;;6.60;3.12;;;;;;;1.53;68.73;101599.87;1795792;79;23612;-59
2021/03/03 05:18:41;;;;;;;6.92;3.08;;;;;;;1.49;68.96;101603.41;1779242;79;21481;-59
2021/03/03 05:21:09;;;;;;;8.30;3.15;;;;;;;1.48;69.01;101605.16;1792165;79;21454;-60
2021/03/03 05:23:36;;;;;;;9.35;3.60;;;;;;;1.46;69.19;101610.83;1790933;79;21666;-61
2021/03/03 05:26:04;;;;;;;6.78;3.17;;;;;;;1.48;69.26;101612.09;1796986;79;21100;-59
2021/03/03 05:28:33;;;;;;;9.93;4.28;;;;;;;1.47;69.42;101615.56;1779409;77;21227;-60
2021/03/03 05:31:00;;;;;;;6.95;3.60;;;;;;;1.48;69.43;101612.94;1755090;80;21637;-59
2021/03/03 05:33:30;;;;;;;8.70;4.58;;;;;;;1.48;69.53;101614.23;1795644;77;21156;-60
2021/03/03 05:36:01;;;;;;;8.38;3.72;;;;;;;1.52;69.59;101615.02;1760520;80;21233;-59
2021/03/03 05:38:28;;;;;;;7.87;2.95;;;;;;;1.52;69.66;101611.12;1750449;80;21178;-60
2021/03/03 05:40:56;;;;;;;9.00;3.70;;;;;;;1.57;69.66;101622.70;1785373;78;22072;-63
2021/03/03 05:43:23;;;;;;;8.40;4.05;;;;;;;1.61;69.71;101619.98;1773771;78;21734;-60
2021/03/03 05:45:51;;;;;;;10.50;3.98;;;;;;;1.72;69.54;101626.70;1757077;79;21160;-59
2021/03/03 05:48:34;;;;;;;9.03;3.50;;;;;;;1.86;69.26;101626.75;1766948;80;21252;-59
2021/03/03 05:51:04;;;;;;;6.62;3.25;;;;;;;1.95;69.06;101630.02;1775176;80;21198;-60
2021/03/03 05:53:33;;;;;;;12.73;5.20;;;;;;;1.96;69.06;101632.58;1754826;81;21371;-60
2021/03/03 05:56:02;;;;;;;18.27;6.75;;;;;;;1.96;69.18;101633.04;1713596;81;21243;-60
2021/03/03 05:58:38;;;;;;;9.35;3.92;;;;;;;2.02;69.25;101636.34;1718185;82;21661;-62
2021/03/03 06:01:08;;;;;;;10.08;4.65;;;;;;;2.07;68.92;101637.53;1724867;80;21210;-60
2021/03/03 06:03:37;;;;;;;10.48;4.97;;;;;;;2.08;68.90;101626.69;1756704;79;21132;-60
2021/03/03 06:06:06;;;;;;;9.80;6.12;;;;;;;2.16;68.87;101640.34;1776877;79;21203;-58
2021/03/03 06:08:34;;;;;;;8.88;4.33;;;;;;;2.22;68.76;101640.20;1791900;79;21179;-59
2021/03/03 06:11:03;;;;;;;8.53;4.37;;;;;;;2.38;68.52;101640.65;1790354;79;21215;-59
2021/03/03 06:13:32;;;;;;;13.55;6.30;;;;;;;2.57;67.94;101647.51;1794113;79;21199;-59
2021/03/03 06:27:09;;;;;;;9.18;5.22;;;;;;;4.46;63.13;101647.01;1795034;78;22694;-60
2021/03/03 06:29:38;;;;;;;11.43;5.92;;;;;;;4.62;62.14;101655.17;1768380;80;21206;-59
2021/03/03 06:32:05;;;;;;;7.28;4.17;;;;;;;4.56;61.91;101650.16;1763839;80;21223;-59
2021/03/03 06:34:35;;;;;;;12.93;5.85;;;;;;;4.52;61.60;101656.82;1741064;80;21203;-60
2021/03/03 06:37:04;;;;;;;7.40;3.95;;;;;;;4.38;61.48;101650.78;1760143;78;21132;-59
2021/03/03 06:39:36;;;;;;;8.90;4.47;;;;;;;4.18;61.66;101644.94;1755961;80;21195;-58
2021/03/03 06:42:26;;;;;;;9.50;4.67;;;;;;;4.04;62.30;101638.88;1809283;79;22723;-60
2021/03/03 06:44:56;;;;;;;10.08;5.35;;;;;;;3.96;62.48;101655.20;1717566;83;21192;-59
2021/03/03 06:47:24;;;;;;;9.55;5.37;;;;;;;3.87;62.68;101645.48;1729511;81;21431;-59
2021/03/03 06:49:53;;;;;;;10.60;4.97;;;;;;;3.79;62.53;101640.96;1741396;81;22267;-59
2021/03/03 06:52:41;;;;;;;10.25;4.60;;;;;;;3.78;62.59;101643.15;1689290;83;21635;-61
2021/03/03 06:55:10;;;;;;;8.15;4.65;;;;;;;3.84;62.59;101642.12;1709082;81;21228;-65
2021/03/03 06:57:38;;;;;;;10.43;5.53;;;;;;;3.82;63.03;101641.33;1723496;81;21193;-60
2021/03/03 07:00:10;;;;;;;9.53;4.85;;;;;;;3.81;63.02;101640.45;1720965;82;22328;-60
2021/03/03 07:02:38;;;;;;;12.63;5.05;;;;;;;3.84;62.96;101640.83;1713110;82;21653;-61
2021/03/03 07:05:11;;;;;;;12.07;5.42;;;;;;;3.82;62.55;101638.27;1740754;81;21227;-59
2021/03/03 07:07:38;;;;;;;9.48;5.28;;;;;;;3.77;62.65;101633.66;1716680;83;21458;-61
2021/03/03 07:10:09;;;;;;;10.08;5.55;;;;;;;3.75;62.72;101639.37;1665904;83;21206;-63
2021/03/03 07:12:49;;;;;;;10.30;4.30;;;;;;;3.79;62.23;101647.47;1748991;81;21228;-61
2021/03/03 07:15:16;;;;;;;9.65;4.75;;;;;;;3.86;62.26;101642.46;1716485;83;21627;-61
2021/03/03 07:17:44;;;;;;;15.18;6.35;;;;;;;3.89;62.04;101642.83;1710510;83;21431;-60
2021/03/03 07:20:17;;;;;;;8.80;4.97;;;;;;;3.92;63.71;101655.75;1710324;81;21553;-58
2021/03/03 07:22:50;;;;;;;9.38;4.60;;;;;;;3.97;61.96;101642.56;1695265;82;21634;-60
2021/03/03 07:25:20;;;;;;;9.18;3.92;;;;;;;3.96;61.76;101649.53;1721994;81;21236;-64
2021/03/03 07:27:48;;;;;;;8.08;4.28;;;;;;;3.93;61.63;101643.12;1717596;81;21232;-62
2021/03/03 07:30:25;;;;;;;10.93;4.42;;;;;;;3.88;61.66;101643.29;1742533;81;21582;-63
2021/03/03 07:32:54;;;;;;;10.00;5.03;;;;;;;3.87;61.68;101648.55;1690115;82;21932;-63
2021/03/03 07:35:24;;;;;;;9.55;4.97;;;;;;;3.93;61.79;101643.58;1707623;83;21263;-62
2021/03/03 07:37:54;;;;;;;17.77;5.47;;;;;;;4.04;61.53;101646.70;1710742;82;21701;-65
2021/03/03 07:40:26;;;;;;;7.92;4.70;;;;;;;4.09;61.21;101639.12;1712930;82;21178;-62
2021/03/03 07:42:56;;;;;;;8.65;4.67;;;;;;;4.16;61.23;101646.75;1693720;83;21224;-65
2021/03/03 07:45:40;;;;;;;9.73;5.20;;;;;;;4.20;60.96;101647.91;1670255;84;21620;-61
2021/03/03 07:48:11;;;;;;;11.55;4.47;;;;;;;4.21;60.69;101646.98;1692230;84;21188;-60
2021/03/03 07:50:39;;;;;;;10.32;4.47;;;;;;;4.20;60.87;101644.42;1691390;82;21388;-59
2021/03/03 07:53:09;;;;;;;10.23;4.72;;;;;;;4.21;60.81;101642.23;1692152;83;21220;-60
2021/03/03 07:55:37;;;;;;;8.73;4.60;;;;;;;4.23;60.66;101646.94;1691685;83;21538;-59
2021/03/03 07:58:06;;;;;;;10.25;4.30;;;;;;;4.22;60.76;101646.09;1696309;82;21078;-60
2021/03/03 08:00:37;;;;;;;8.03;4.72;;;;;;;4.22;60.65;101648.70;1749517;80;21195;-60
2021/03/03 08:03:06;;;;;;;9.08;4.40;;;;;;;4.24;60.94;101652.09;1758075;80;21216;-61
2021/03/03 08:05:39;;;;;;;14.73;5.80;;;;;;;4.32;60.71;101653.59;1750947;80;21196;-61
2021/03/03 08:08:26;;;;;;;8.20;4.65;;;;;;;4.39;60.23;101658.55;1751232;80;21215;-66
2021/03/03 08:11:07;;;;;;;8.90;5.12;;;;;;;4.54;59.85;101655.88;1753408;80;21210;-67
2021/03/03 08:13:39;;;;;;;8.75;5.45;;;;;;;4.62;59.68;101651.26;1757289;80;21157;-66
2021/03/03 08:16:10;;;;;;;9.95;5.65;;;;;;;4.66;59.17;101651.99;1752407;80;21352;-66
2021/03/03 08:18:59;;;;;;;11.25;5.42;;;;;;;4.67;58.87;101648.92;1756371;80;21113;-66
2021/03/03 08:21:31;;;;;;;12.55;5.70;;;;;;;4.64;59.19;101640.78;1751213;80;21233;-65
2021/03/03 08:24:04;;;;;;;15.13;6.40;;;;;;;4.64;59.06;101644.23;1753586;80;21191;-66
2021/03/03 08:26:37;;;;;;;11.57;5.45;;;;;;;4.63;59.27;101643.81;1756209;80;21188;-59
2021/03/03 08:29:27;;;;;;;7.85;4.55;;;;;;;4.68;58.98;101643.66;1755756;80;23222;-58
2021/03/03 08:32:25;;;;;;;10.08;4.92;;;;;;;4.67;58.95;101645.02;1758832;80;21148;-59
2021/03/03 08:34:53;;;;;;;10.98;5.28;;;;;;;4.69;59.07;101652.33;1674965;84;21217;-59
2021/03/03 08:37:29;;;;;;;10.65;4.55;;;;;;;4.69;59.00;101653.63;1763505;80;21153;-67
2021/03/03 08:39:56;;;;;;;8.18;4.30;;;;;;;4.75;58.95;101649.52;1741639;80;26677;-66
2021/03/03 08:42:30;;;;;;;9.85;5.35;;;;;;;4.78;59.04;101654.63;1755509;80;21210;-67
2021/03/03 08:45:07;;;;;;;10.10;4.97;;;;;;;4.81;58.98;101648.84;1758767;80;21158;-61
2021/03/03 08:47:49;;;;;;;9.23;5.03;;;;;;;4.89;58.37;101647.25;1699167;84;21248;-63
2021/03/03 08:50:28;;;;;;;9.45;4.70;;;;;;;4.97;58.29;101636.08;1753607;80;21168;-62
2021/03/03 08:53:25;;;;;;;13.10;4.40;;;;;;;5.07;58.32;101642.28;1753081;80;21118;-66
2021/03/03 08:55:53;;;;;;;;;;;;;;;5.15;58.25;101637.63;1700700;82;21360;-66
2021/03/03 08:58:38;;;;;;;10.48;4.55;;;;;;;5.15;58.33;101638.94;1686414;83;20523;-68
2021/03/03 09:01:06;;;;;;;8.80;4.75;;;;;;;5.09;58.50;101639.16;1753421;80;21219;-69
2021/03/03 09:03:37;;;;;;;10.15;4.08;;;;;;;5.11;58.84;101639.95;1750508;80;21185;-69
2021/03/03 09:06:05;;;;;;;9.33;4.53;;;;;;;5.16;58.78;101636.70;1728168;82;21165;-64
2021/03/03 09:08:33;;;;;;;13.80;4.58;;;;;;;5.24;58.39;101644.27;1759679;80;21414;-64
2021/03/03 09:11:02;;;;;;;9.33;5.28;;;;;;;5.29;57.97;101644.94;1764101;80;21177;-62
2021/03/03 09:13:31;;;;;;;8.33;3.15;;;;;;;5.36;57.92;101639.44;1755279;80;21687;-59
2021/03/03 09:16:29;;;;;;;9.50;4.75;;;;;;;5.46;57.60;101645.60;1757589;80;21161;-62
2021/03/03 09:19:06;;;;;;;7.35;4.12;;;;;;;5.52;57.75;101651.44;1765678;79;21176;-61
2021/03/03 09:21:33;;;;;;;7.83;3.47;;;;;;;5.56;57.04;101658.69;1760670;79;21277;-61
2021/03/03 09:24:09;;;;;;;7.90;3.83;;;;;;;5.56;56.95;101662.61;1729482;81;21183;-61
2021/03/03 09:26:37;;;;;;;7.55;3.20;;;;;;;5.59;56.63;101660.73;1699723;83;21159;-61
2021/03/03 09:29:05;;;;;;;8.23;2.92;;;;;;;5.73;55.52;101659.34;1725447;82;21200;-58
2021/03/03 09:31:35;;;;;;;6.85;3.30;;;;;;;5.73;55.52;101659.34;1761141;79;21112;-67
2021/03/03 09:34:04;;;;;;;8.10;3.67;;;;;;;5.77;55.33;101664.39;1726755;81;21407;-62
2021/03/03 09:36:31;;;;;;;6.08;2.50;;;;;;;5.80;55.02;101661.25;1755406;80;21755;-62
2021/03/03 09:39:00;;;;;;;6.53;2.98;;;;;;;5.84;54.62;101657.16;1723076;81;21185;-61
2021/03/03 09:41:28;;;;;;;4.85;1.57;;;;;;;5.91;54.55;101656.00;1757890;81;21617;-62
2021/03/03 09:44:02;;;;;;;5.70;2.45;;;;;;;6.00;53.64;101647.42;1737932;81;21136;-62
2021/03/03 09:46:57;;;;;;;6.72;2.77;;;;;;;6.06;53.64;101654.56;1754811;80;21303;-62
2021/03/03 09:49:28;;;;;;;8.63;2.92;;;;;;;6.12;53.70;101652.17;1731115;81;21209;-64
2021/03/03 09:51:57;;;;;;;6.85;2.83;;;;;;;6.16;53.54;101645.05;1671334;83;21188;-65
2021/03/03 09:54:32;;;;;;;7.87;2.67;;;;;;;6.20;53.06;101651.38;1699477;84;21191;-64
2021/03/03 09:57:10;;;;;;;5.95;2.70;;;;;;;6.26;53.65;101638.52;1728305;81;21658;-66
2021/03/03 09:59:43;;;;;;;9.63;2.90;;;;;;;6.26;53.65;101638.52;1726575;81;21697;-62
2021/03/03 10:02:12;;;;;;;6.85;3.10;;;;;;;6.37;53.11;101642.86;1722791;81;21161;-66
2021/03/03 10:04:41;;;;;;;5.47;2.30;;;;;;;6.48;52.46;101629.31;1714909;83;22305;-65
2021/03/03 10:07:13;;;;;;;5.83;2.85;;;;;;;6.48;52.46;101629.31;1731975;80;21201;-66
2021/03/03 10:09:45;;;;;;;6.05;2.25;;;;;;;6.51;52.85;101630.49;1764384;79;21225;-61
2021/03/03 10:12:17;;;;;;;4.90;2.47;;;;;;;6.60;52.56;101632.70;1720254;83;21215;-68
2021/03/03 10:14:58;;;;;;;7.28;2.17;;;;;;;6.68;51.54;101625.83;1726093;81;21217;-65
2021/03/03 10:17:39;;;;;;;4.95;2.27;;;;;;;6.75;51.36;101625.11;1740798;80;21218;-65
2021/03/03 10:20:32;;;;;;;6.12;2.40;;;;;;;6.75;51.25;101622.02;1702357;82;21206;-66
2021/03/03 10:23:21;;;;;;;6.83;2.98;;;;;;;6.77;51.81;101616.73;1731973;81;21227;-63
2021/03/03 10:25:55;;;;;;;6.65;2.92;;;;;;;6.84;51.30;101618.14;1731349;82;21379;-63
2021/03/03 10:28:25;;;;;;;8.70;2.85;;;;;;;6.84;51.30;101618.14;1704316;82;21222;-64
2021/03/03 10:30:57;;;;;;;6.65;3.30;;;;;;;6.84;51.45;101608.98;1703716;83;21157;-65
2021/03/03 10:33:40;;;;;;;9.95;3.27;;;;;;;6.83;52.13;101605.53;1675604;84;21744;-63
2021/03/03 10:36:21;;;;;;;8.08;2.80;;;;;;;6.90;51.27;101610.50;1669072;84;21195;-64
2021/03/03 10:38:54;;;;;;;7.00;2.75;;;;;;;6.90;50.89;101610.50;1700902;83;22225;-64
2021/03/03 10:41:28;;;;;;;7.75;2.70;;;;;;;6.91;51.43;101606.95;1666503;84;21215;-67
2021/03/03 10:44:05;;;;;;;5.08;2.17;;;;;;;6.98;52.12;101601.84;1865358;75;22913;-65
2021/03/03 10:46:35;;;;;;;7.58;3.20;;;;;;;7.06;51.89;101601.88;1839423;77;21152;-67
2021/03/03 10:49:17;;;;;;;11.22;3.17;;;;;;;7.17;51.44;101607.92;1841235;77;21194;-62
2021/03/03 10:51:45;;;;;;;7.60;2.75;;;;;;;7.28;51.46;101599.59;1841108;77;21034;-65
2021/03/03 10:54:14;;;;;;;10.10;2.90;;;;;;;7.42;50.81;101604.16;1845567;77;21154;-66
2021/03/03 10:56:43;;;;;;;8.10;3.05;;;;;;;7.55;50.62;101600.04;1832171;77;21140;-66
2021/03/03 10:59:27;;;;;;;8.23;3.30;;;;;;;7.63;50.53;101600.52;1843220;77;21057;-66
2021/03/03 11:01:57;;;;;;;7.47;2.72;;;;;;;7.68;49.33;101600.75;1845214;77;23080;-66
2021/03/03 11:04:45;;;;;;;7.08;3.17;;;;;;;7.65;49.17;101591.28;1803516;77;21175;-67
2021/03/03 11:07:15;;;;;;;6.78;3.02;;;;;;;7.60;49.51;101601.98;1809483;77;21528;-63
2021/03/03 11:09:52;;;;;;;5.78;2.80;;;;;;;7.52;49.89;101594.95;1807324;78;21596;-64
2021/03/03 11:12:24;;;;;;;6.47;2.83;;;;;;;7.46;50.23;101587.84;1783641;78;21195;-66
2021/03/03 11:14:51;;;;;;;5.80;2.75;;;;;;;7.46;50.05;101590.45;1788097;78;21245;-66
2021/03/03 11:17:20;;;;;;;6.92;3.12;;;;;;;7.47;50.13;101590.86;1800062;78;21610;-65
2021/03/03 11:19:47;;;;;;;7.67;3.05;;;;;;;7.51;49.99;101588.47;1820815;77;21123;-67
2021/03/03 11:22:15;;;;;;;7.17;2.72;;;;;;;7.51;50.32;101585.38;1812347;78;21223;-66
2021/03/03 11:24:43;;;;;;;7.62;3.22;;;;;;;7.56;50.87;101583.38;1782773;80;21623;-66
2021/03/03 11:27:10;;;;;;;9.03;3.15;;;;;;;7.70;49.95;101580.13;1814906;78;21183;-64
2021/03/03 11:29:37;;;;;;;5.95;2.72;;;;;;;7.77;49.52;101580.67;1782823;79;21210;-59
2021/03/03 11:32:08;;;;;;;8.10;3.30;;;;;;;7.86;48.54;101579.36;1772439;80;21183;-59
2021/03/03 11:34:35;;;;;;;7.97;2.70;;;;;;;7.91;47.54;101576.88;1771774;80;21188;-60
2021/03/03 11:37:04;;;;;;;5.33;2.27;;;;;;;7.95;48.29;101582.37;1766246;80;21195;-63
2021/03/03 11:39:32;;;;;;;9.45;2.77;;;;;;;8.02;48.16;101582.05;1785532;79;21654;-58
2021/03/03 11:42:00;;;;;;;5.95;2.67;;;;;;;8.05;47.97;101572.73;1785469;79;21662;-59
2021/03/03 11:44:28;;;;;;;5.17;2.12;;;;;;;8.11;47.77;101567.19;1813160;78;21178;-61
2021/03/03 11:46:57;;;;;;;6.17;2.17;;;;;;;8.21;47.10;101573.66;1761473;80;21234;-60
2021/03/03 11:49:25;;;;;;;8.05;3.20;;;;;;;8.22;46.83;101574.48;1753282;79;21132;-58
2021/03/03 11:51:52;;;;;;;6.35;2.47;;;;;;;8.23;46.62;101569.17;1768433;79;21179;-59
2021/03/03 11:54:20;;;;;;;6.58;2.98;;;;;;;8.27;46.64;101558.92;1797726;79;21204;-59
2021/03/03 11:56:49;;;;;;;5.42;2.20;;;;;;;8.33;46.64;101555.97;1753340;80;21230;-59
2021/03/03 11:59:16;;;;;;;7.22;2.90;;;;;;;8.34;46.08;101554.22;1776801;78;21166;-60
2021/03/03 12:01:55;;;;;;;6.55;2.17;;;;;;;8.30;46.19;101552.19;1812940;78;21202;-59